sensor_id;sensor_type;location;lat;lon;timestamp;P1;durP1;ratioP1;P2;durP2;ratioP2
69386;SDS011;56575;48.942;8.404;2023-04-03T00:00:29;4.63;;;1.80;;
69386;SDS011;56575;48.942;8.404;2023-04-03T00:02:54;3.13;;;1.70;;
69386;SDS011;56575;48.942;8.404;2023-04-03T00:05:19;3.03;;;1.73;;
69386;SDS011;56575;48.942;8.404;2023-04-03T00:07:45;3.10;;;1.60;;
69386;SDS011;56575;48.942;8.404;2023-04-03T00:10:10;3.33;;;1.60;;
69386;SDS011;56575;48.942;8.404;2023-04-03T00:12:36;2.83;;;1.55;;
69386;SDS011;56575;48.942;8.404;2023-04-03T00:15:02;4.13;;;1.60;;
69386;SDS011;56575;48.942;8.404;2023-04-03T00:17:27;4.07;;;1.53;;
69386;SDS011;56575;48.942;8.404;2023-04-03T00:19:53;3.30;;;1.57;;
69386;SDS011;56575;48.942;8.404;2023-04-03T00:22:18;3.13;;;1.50;;
69386;SDS011;56575;48.942;8.404;2023-04-03T00:24:44;3.57;;;1.43;;
69386;SDS011;56575;48.942;8.404;2023-04-03T00:27:09;3.45;;;1.70;;
69386;SDS011;56575;48.942;8.404;2023-04-03T00:29:36;2.77;;;1.43;;
69386;SDS011;56575;48.942;8.404;2023-04-03T00:32:01;5.10;;;1.40;;
69386;SDS011;56575;48.942;8.404;2023-04-03T00:34:27;2.90;;;1.63;;
69386;SDS011;56575;48.942;8.404;2023-04-03T00:36:53;2.25;;;1.27;;
69386;SDS011;56575;48.942;8.404;2023-04-03T00:39:18;3.17;;;1.40;;
69386;SDS011;56575;48.942;8.404;2023-04-03T00:41:44;3.10;;;1.50;;
69386;SDS011;56575;48.942;8.404;2023-04-03T00:44:19;2.53;;;1.40;;
69386;SDS011;56575;48.942;8.404;2023-04-03T00:47:05;6.97;;;1.53;;
69386;SDS011;56575;48.942;8.404;2023-04-03T00:49:33;2.55;;;1.70;;
69386;SDS011;56575;48.942;8.404;2023-04-03T00:51:59;4.93;;;1.60;;
69386;SDS011;56575;48.942;8.404;2023-04-03T00:54:25;3.10;;;1.50;;
69386;SDS011;56575;48.942;8.404;2023-04-03T00:56:51;3.15;;;1.40;;
69386;SDS011;56575;48.942;8.404;2023-04-03T00:59:21;4.20;;;1.40;;
69386;SDS011;56575;48.942;8.404;2023-04-03T01:01:50;4.57;;;1.50;;
69386;SDS011;56575;48.942;8.404;2023-04-03T01:06:52;2.55;;;1.50;;
69386;SDS011;56575;48.942;8.404;2023-04-03T01:09:20;8.77;;;1.85;;
69386;SDS011;56575;48.942;8.404;2023-04-03T01:11:46;4.28;;;1.38;;
69386;SDS011;56575;48.942;8.404;2023-04-03T01:14:12;3.20;;;1.53;;
69386;SDS011;56575;48.942;8.404;2023-04-03T01:16:37;3.87;;;1.43;;
69386;SDS011;56575;48.942;8.404;2023-04-03T01:19:03;4.38;;;1.52;;
69386;SDS011;56575;48.942;8.404;2023-04-03T01:22:19;2.85;;;1.60;;
69386;SDS011;56575;48.942;8.404;2023-04-03T01:24:36;2.88;;;1.50;;
69386;SDS011;56575;48.942;8.404;2023-04-03T01:27:04;2.53;;;1.10;;
69386;SDS011;56575;48.942;8.404;2023-04-03T01:29:31;4.15;;;1.40;;
69386;SDS011;56575;48.942;8.404;2023-04-03T01:31:57;3.35;;;1.13;;
69386;SDS011;56575;48.942;8.404;2023-04-03T01:34:27;4.17;;;1.70;;
69386;SDS011;56575;48.942;8.404;2023-04-03T01:36:54;2.70;;;1.30;;
69386;SDS011;56575;48.942;8.404;2023-04-03T01:39:20;2.80;;;1.40;;
69386;SDS011;56575;48.942;8.404;2023-04-03T01:41:46;2.90;;;1.47;;
69386;SDS011;56575;48.942;8.404;2023-04-03T01:44:12;2.47;;;1.20;;
69386;SDS011;56575;48.942;8.404;2023-04-03T01:46:37;4.00;;;1.50;;
69386;SDS011;56575;48.942;8.404;2023-04-03T01:49:03;3.07;;;1.50;;
69386;SDS011;56575;48.942;8.404;2023-04-03T01:51:29;3.63;;;1.50;;
69386;SDS011;56575;48.942;8.404;2023-04-03T01:53:55;4.00;;;1.45;;
69386;SDS011;56575;48.942;8.404;2023-04-03T01:56:20;2.13;;;1.10;;
69386;SDS011;56575;48.942;8.404;2023-04-03T01:58:46;3.00;;;1.23;;
69386;SDS011;56575;48.942;8.404;2023-04-03T02:01:11;2.83;;;1.30;;
69386;SDS011;56575;48.942;8.404;2023-04-03T02:03:37;2.60;;;1.20;;
69386;SDS011;56575;48.942;8.404;2023-04-03T02:06:02;2.47;;;1.50;;
69386;SDS011;56575;48.942;8.404;2023-04-03T02:08:27;3.20;;;1.40;;
69386;SDS011;56575;48.942;8.404;2023-04-03T02:10:53;4.33;;;1.20;;
69386;SDS011;56575;48.942;8.404;2023-04-03T02:13:18;3.43;;;1.37;;
69386;SDS011;56575;48.942;8.404;2023-04-03T02:15:44;4.03;;;1.40;;
69386;SDS011;56575;48.942;8.404;2023-04-03T02:18:10;4.53;;;1.40;;
69386;SDS011;56575;48.942;8.404;2023-04-03T02:20:36;2.38;;;1.20;;
69386;SDS011;56575;48.942;8.404;2023-04-03T02:23:01;3.20;;;1.40;;
69386;SDS011;56575;48.942;8.404;2023-04-03T02:25:27;3.13;;;1.40;;
69386;SDS011;56575;48.942;8.404;2023-04-03T02:27:53;3.20;;;1.10;;
69386;SDS011;56575;48.942;8.404;2023-04-03T02:30:18;4.27;;;1.50;;
69386;SDS011;56575;48.942;8.404;2023-04-03T02:32:44;3.55;;;1.50;;
69386;SDS011;56575;48.942;8.404;2023-04-03T02:35:10;4.00;;;1.47;;
69386;SDS011;56575;48.942;8.404;2023-04-03T02:37:36;4.28;;;1.67;;
69386;SDS011;56575;48.942;8.404;2023-04-03T02:40:02;2.55;;;1.40;;
69386;SDS011;56575;48.942;8.404;2023-04-03T02:42:29;5.07;;;1.50;;
69386;SDS011;56575;48.942;8.404;2023-04-03T02:44:54;2.67;;;1.20;;
69386;SDS011;56575;48.942;8.404;2023-04-03T02:47:20;4.17;;;1.50;;
69386;SDS011;56575;48.942;8.404;2023-04-03T02:49:45;3.73;;;1.30;;
69386;SDS011;56575;48.942;8.404;2023-04-03T02:52:11;3.07;;;1.43;;
69386;SDS011;56575;48.942;8.404;2023-04-03T02:54:37;5.20;;;1.50;;
69386;SDS011;56575;48.942;8.404;2023-04-03T02:57:03;4.07;;;1.35;;
69386;SDS011;56575;48.942;8.404;2023-04-03T02:59:28;3.53;;;1.33;;
69386;SDS011;56575;48.942;8.404;2023-04-03T03:01:54;4.30;;;1.30;;
69386;SDS011;56575;48.942;8.404;2023-04-03T03:04:20;5.28;;;1.50;;
69386;SDS011;56575;48.942;8.404;2023-04-03T03:06:46;3.10;;;1.37;;
69386;SDS011;56575;48.942;8.404;2023-04-03T03:09:11;4.00;;;1.50;;
69386;SDS011;56575;48.942;8.404;2023-04-03T03:11:38;3.80;;;1.63;;
69386;SDS011;56575;48.942;8.404;2023-04-03T03:14:03;3.67;;;1.40;;
69386;SDS011;56575;48.942;8.404;2023-04-03T03:16:29;3.87;;;1.50;;
69386;SDS011;56575;48.942;8.404;2023-04-03T03:18:55;3.57;;;1.43;;
69386;SDS011;56575;48.942;8.404;2023-04-03T03:21:21;3.43;;;1.60;;
69386;SDS011;56575;48.942;8.404;2023-04-03T03:23:46;4.57;;;1.40;;
69386;SDS011;56575;48.942;8.404;2023-04-03T03:26:12;3.20;;;1.73;;
69386;SDS011;56575;48.942;8.404;2023-04-03T03:28:37;4.20;;;1.40;;
69386;SDS011;56575;48.942;8.404;2023-04-03T03:31:04;4.60;;;1.30;;
69386;SDS011;56575;48.942;8.404;2023-04-03T03:33:30;3.00;;;1.60;;
69386;SDS011;56575;48.942;8.404;2023-04-03T03:35:56;4.03;;;1.40;;
69386;SDS011;56575;48.942;8.404;2023-04-03T03:38:22;5.00;;;1.87;;
69386;SDS011;56575;48.942;8.404;2023-04-03T03:40:48;4.53;;;1.40;;
69386;SDS011;56575;48.942;8.404;2023-04-03T03:43:14;3.78;;;2.10;;
69386;SDS011;56575;48.942;8.404;2023-04-03T03:45:40;4.32;;;1.65;;
69386;SDS011;56575;48.942;8.404;2023-04-03T03:48:05;4.43;;;1.63;;
69386;SDS011;56575;48.942;8.404;2023-04-03T03:50:31;2.97;;;1.77;;
69386;SDS011;56575;48.942;8.404;2023-04-03T03:52:56;3.23;;;1.40;;
69386;SDS011;56575;48.942;8.404;2023-04-03T03:55:22;3.03;;;1.30;;
69386;SDS011;56575;48.942;8.404;2023-04-03T03:57:47;6.20;;;1.57;;
69386;SDS011;56575;48.942;8.404;2023-04-03T04:00:12;5.27;;;1.63;;
69386;SDS011;56575;48.942;8.404;2023-04-03T04:02:38;3.10;;;1.37;;
69386;SDS011;56575;48.942;8.404;2023-04-03T04:05:04;4.77;;;1.57;;
69386;SDS011;56575;48.942;8.404;2023-04-03T04:07:29;4.10;;;1.70;;
69386;SDS011;56575;48.942;8.404;2023-04-03T04:09:55;4.83;;;1.80;;
69386;SDS011;56575;48.942;8.404;2023-04-03T04:12:20;3.87;;;1.70;;
69386;SDS011;56575;48.942;8.404;2023-04-03T04:14:47;3.85;;;1.50;;
69386;SDS011;56575;48.942;8.404;2023-04-03T04:17:13;3.73;;;1.67;;
69386;SDS011;56575;48.942;8.404;2023-04-03T04:19:38;2.70;;;1.38;;
69386;SDS011;56575;48.942;8.404;2023-04-03T04:22:04;5.60;;;1.83;;
69386;SDS011;56575;48.942;8.404;2023-04-03T04:24:29;2.97;;;1.73;;
69386;SDS011;56575;48.942;8.404;2023-04-03T04:26:55;2.87;;;1.37;;
69386;SDS011;56575;48.942;8.404;2023-04-03T04:29:20;4.80;;;1.83;;
69386;SDS011;56575;48.942;8.404;2023-04-03T04:31:46;3.78;;;1.60;;
69386;SDS011;56575;48.942;8.404;2023-04-03T04:34:11;3.87;;;1.70;;
69386;SDS011;56575;48.942;8.404;2023-04-03T04:36:38;4.07;;;1.70;;
69386;SDS011;56575;48.942;8.404;2023-04-03T04:39:03;3.90;;;1.70;;
69386;SDS011;56575;48.942;8.404;2023-04-03T04:41:30;4.50;;;1.45;;
69386;SDS011;56575;48.942;8.404;2023-04-03T04:43:55;2.80;;;1.52;;
69386;SDS011;56575;48.942;8.404;2023-04-03T04:46:21;4.83;;;1.50;;
69386;SDS011;56575;48.942;8.404;2023-04-03T04:48:47;4.13;;;1.73;;
69386;SDS011;56575;48.942;8.404;2023-04-03T04:51:13;4.00;;;1.90;;
69386;SDS011;56575;48.942;8.404;2023-04-03T04:53:39;3.70;;;1.70;;
69386;SDS011;56575;48.942;8.404;2023-04-03T04:56:06;3.72;;;1.80;;
69386;SDS011;56575;48.942;8.404;2023-04-03T04:58:31;4.68;;;1.60;;
69386;SDS011;56575;48.942;8.404;2023-04-03T05:01:00;4.83;;;2.30;;
69386;SDS011;56575;48.942;8.404;2023-04-03T05:03:30;4.80;;;2.03;;
69386;SDS011;56575;48.942;8.404;2023-04-03T05:05:56;5.33;;;2.00;;
69386;SDS011;56575;48.942;8.404;2023-04-03T05:08:21;4.53;;;1.87;;
69386;SDS011;56575;48.942;8.404;2023-04-03T05:10:47;3.25;;;1.63;;
69386;SDS011;56575;48.942;8.404;2023-04-03T05:13:13;3.78;;;1.70;;
69386;SDS011;56575;48.942;8.404;2023-04-03T05:15:39;2.70;;;1.60;;
69386;SDS011;56575;48.942;8.404;2023-04-03T05:18:04;3.30;;;1.80;;
69386;SDS011;56575;48.942;8.404;2023-04-03T05:20:30;4.80;;;1.73;;
69386;SDS011;56575;48.942;8.404;2023-04-03T05:22:56;3.67;;;1.60;;
69386;SDS011;56575;48.942;8.404;2023-04-03T05:25:22;5.33;;;2.00;;
69386;SDS011;56575;48.942;8.404;2023-04-03T05:27:48;4.00;;;1.93;;
69386;SDS011;56575;48.942;8.404;2023-04-03T05:30:13;5.73;;;2.13;;
69386;SDS011;56575;48.942;8.404;2023-04-03T05:32:39;4.57;;;2.03;;
69386;SDS011;56575;48.942;8.404;2023-04-03T05:35:05;4.47;;;1.87;;
69386;SDS011;56575;48.942;8.404;2023-04-03T05:37:31;3.60;;;1.77;;
69386;SDS011;56575;48.942;8.404;2023-04-03T05:39:56;2.87;;;1.73;;
69386;SDS011;56575;48.942;8.404;2023-04-03T05:42:22;4.65;;;1.75;;
69386;SDS011;56575;48.942;8.404;2023-04-03T05:44:47;2.77;;;1.73;;
69386;SDS011;56575;48.942;8.404;2023-04-03T05:47:13;5.38;;;2.85;;
69386;SDS011;56575;48.942;8.404;2023-04-03T05:49:39;4.27;;;1.70;;
69386;SDS011;56575;48.942;8.404;2023-04-03T05:52:06;4.93;;;1.70;;
69386;SDS011;56575;48.942;8.404;2023-04-03T05:54:45;3.03;;;1.60;;
69386;SDS011;56575;48.942;8.404;2023-04-03T05:57:13;3.20;;;1.60;;
69386;SDS011;56575;48.942;8.404;2023-04-03T05:59:39;5.82;;;1.83;;
69386;SDS011;56575;48.942;8.404;2023-04-03T06:02:05;4.55;;;1.90;;
69386;SDS011;56575;48.942;8.404;2023-04-03T06:04:31;4.88;;;1.90;;
69386;SDS011;56575;48.942;8.404;2023-04-03T06:06:57;4.67;;;2.07;;
69386;SDS011;56575;48.942;8.404;2023-04-03T06:09:24;5.75;;;1.90;;
69386;SDS011;56575;48.942;8.404;2023-04-03T06:11:51;5.10;;;1.87;;
69386;SDS011;56575;48.942;8.404;2023-04-03T06:14:17;4.88;;;1.70;;
69386;SDS011;56575;48.942;8.404;2023-04-03T06:16:43;4.47;;;1.85;;
69386;SDS011;56575;48.942;8.404;2023-04-03T06:19:09;3.95;;;2.25;;
69386;SDS011;56575;48.942;8.404;2023-04-03T06:21:35;4.03;;;1.63;;
69386;SDS011;56575;48.942;8.404;2023-04-03T06:24:00;3.60;;;1.67;;
69386;SDS011;56575;48.942;8.404;2023-04-03T06:26:27;4.33;;;1.80;;
69386;SDS011;56575;48.942;8.404;2023-04-03T06:28:53;3.75;;;1.63;;
69386;SDS011;56575;48.942;8.404;2023-04-03T06:31:18;3.45;;;1.85;;
69386;SDS011;56575;48.942;8.404;2023-04-03T06:33:45;4.33;;;1.97;;
69386;SDS011;56575;48.942;8.404;2023-04-03T06:36:10;3.53;;;1.92;;
69386;SDS011;56575;48.942;8.404;2023-04-03T06:38:36;3.85;;;1.95;;
69386;SDS011;56575;48.942;8.404;2023-04-03T06:41:02;4.80;;;1.90;;
69386;SDS011;56575;48.942;8.404;2023-04-03T06:43:27;3.17;;;1.50;;
69386;SDS011;56575;48.942;8.404;2023-04-03T06:45:52;4.20;;;1.90;;
69386;SDS011;56575;48.942;8.404;2023-04-03T06:48:18;4.82;;;2.17;;
69386;SDS011;56575;48.942;8.404;2023-04-03T06:50:43;6.90;;;2.30;;
69386;SDS011;56575;48.942;8.404;2023-04-03T06:53:10;3.47;;;1.90;;
69386;SDS011;56575;48.942;8.404;2023-04-03T06:55:37;5.27;;;2.30;;
69386;SDS011;56575;48.942;8.404;2023-04-03T06:58:02;4.40;;;2.10;;
69386;SDS011;56575;48.942;8.404;2023-04-03T07:00:28;4.43;;;2.20;;
69386;SDS011;56575;48.942;8.404;2023-04-03T07:02:55;4.78;;;2.20;;
69386;SDS011;56575;48.942;8.404;2023-04-03T07:05:21;5.23;;;2.40;;
69386;SDS011;56575;48.942;8.404;2023-04-03T07:07:46;4.97;;;1.92;;
69386;SDS011;56575;48.942;8.404;2023-04-03T07:10:14;5.40;;;2.27;;
69386;SDS011;56575;48.942;8.404;2023-04-03T07:12:40;3.92;;;2.33;;
69386;SDS011;56575;48.942;8.404;2023-04-03T07:15:06;4.27;;;2.27;;
69386;SDS011;56575;48.942;8.404;2023-04-03T07:17:32;5.13;;;2.30;;
69386;SDS011;56575;48.942;8.404;2023-04-03T07:19:57;5.05;;;2.30;;
69386;SDS011;56575;48.942;8.404;2023-04-03T07:22:23;6.67;;;2.30;;
69386;SDS011;56575;48.942;8.404;2023-04-03T07:24:48;4.47;;;2.63;;
69386;SDS011;56575;48.942;8.404;2023-04-03T07:27:14;4.90;;;2.50;;
69386;SDS011;56575;48.942;8.404;2023-04-03T07:29:39;4.73;;;2.57;;
69386;SDS011;56575;48.942;8.404;2023-04-03T07:32:05;6.10;;;2.70;;
69386;SDS011;56575;48.942;8.404;2023-04-03T07:34:32;5.10;;;2.40;;
69386;SDS011;56575;48.942;8.404;2023-04-03T07:36:58;4.03;;;2.30;;
69386;SDS011;56575;48.942;8.404;2023-04-03T07:39:23;5.22;;;2.33;;
69386;SDS011;56575;48.942;8.404;2023-04-03T07:41:49;4.93;;;2.10;;
69386;SDS011;56575;48.942;8.404;2023-04-03T07:44:15;7.25;;;2.75;;
69386;SDS011;56575;48.942;8.404;2023-04-03T07:46:40;5.63;;;2.70;;
69386;SDS011;56575;48.942;8.404;2023-04-03T07:49:07;4.88;;;2.45;;
69386;SDS011;56575;48.942;8.404;2023-04-03T07:51:32;6.47;;;2.57;;
69386;SDS011;56575;48.942;8.404;2023-04-03T07:53:58;4.70;;;2.60;;
69386;SDS011;56575;48.942;8.404;2023-04-03T07:56:23;5.60;;;2.37;;
69386;SDS011;56575;48.942;8.404;2023-04-03T07:58:50;6.35;;;2.63;;
69386;SDS011;56575;48.942;8.404;2023-04-03T08:01:15;4.63;;;2.70;;
69386;SDS011;56575;48.942;8.404;2023-04-03T08:03:41;4.10;;;2.60;;
69386;SDS011;56575;48.942;8.404;2023-04-03T08:06:07;5.00;;;2.30;;
69386;SDS011;56575;48.942;8.404;2023-04-03T08:08:33;6.38;;;2.40;;
69386;SDS011;56575;48.942;8.404;2023-04-03T08:11:00;4.80;;;2.10;;
69386;SDS011;56575;48.942;8.404;2023-04-03T08:13:27;4.60;;;2.30;;
69386;SDS011;56575;48.942;8.404;2023-04-03T08:15:53;6.20;;;2.58;;
69386;SDS011;56575;48.942;8.404;2023-04-03T08:18:18;5.37;;;2.23;;
69386;SDS011;56575;48.942;8.404;2023-04-03T08:20:46;5.13;;;2.63;;
69386;SDS011;56575;48.942;8.404;2023-04-03T08:23:12;4.77;;;2.07;;
69386;SDS011;56575;48.942;8.404;2023-04-03T08:25:40;4.78;;;2.38;;
69386;SDS011;56575;48.942;8.404;2023-04-03T08:28:06;6.30;;;2.50;;
69386;SDS011;56575;48.942;8.404;2023-04-03T08:30:33;4.83;;;2.40;;
69386;SDS011;56575;48.942;8.404;2023-04-03T08:33:02;3.75;;;2.03;;
69386;SDS011;56575;48.942;8.404;2023-04-03T08:35:28;4.95;;;2.55;;
69386;SDS011;56575;48.942;8.404;2023-04-03T08:37:53;5.40;;;2.60;;
69386;SDS011;56575;48.942;8.404;2023-04-03T08:40:18;4.77;;;2.67;;
69386;SDS011;56575;48.942;8.404;2023-04-03T08:47:50;4.70;;;2.20;;
69386;SDS011;56575;48.942;8.404;2023-04-03T08:50:23;3.35;;;2.25;;
69386;SDS011;56575;48.942;8.404;2023-04-03T08:52:58;6.07;;;2.50;;
69386;SDS011;56575;48.942;8.404;2023-04-03T08:55:33;4.53;;;2.58;;
69386;SDS011;56575;48.942;8.404;2023-04-03T08:58:05;4.15;;;2.20;;
69386;SDS011;56575;48.942;8.404;2023-04-03T09:00:46;6.60;;;2.40;;
69386;SDS011;56575;48.942;8.404;2023-04-03T09:03:29;6.03;;;2.10;;
69386;SDS011;56575;48.942;8.404;2023-04-03T09:11:45;3.55;;;2.30;;
69386;SDS011;56575;48.942;8.404;2023-04-03T09:17:09;4.65;;;2.55;;
69386;SDS011;56575;48.942;8.404;2023-04-03T09:19:42;4.33;;;2.33;;
69386;SDS011;56575;48.942;8.404;2023-04-03T09:27:51;6.05;;;2.50;;
69386;SDS011;56575;48.942;8.404;2023-04-03T09:30:18;6.10;;;2.15;;
69386;SDS011;56575;48.942;8.404;2023-04-03T09:32:47;3.63;;;1.90;;
69386;SDS011;56575;48.942;8.404;2023-04-03T09:37:48;4.32;;;1.80;;
69386;SDS011;56575;48.942;8.404;2023-04-03T09:42:50;4.38;;;2.13;;
69386;SDS011;56575;48.942;8.404;2023-04-03T09:45:31;3.20;;;1.63;;
69386;SDS011;56575;48.942;8.404;2023-04-03T09:48:12;4.38;;;1.80;;
69386;SDS011;56575;48.942;8.404;2023-04-03T09:53:29;3.20;;;1.90;;
69386;SDS011;56575;48.942;8.404;2023-04-03T09:58:40;3.60;;;2.03;;
69386;SDS011;56575;48.942;8.404;2023-04-03T10:01:31;5.22;;;2.08;;
69386;SDS011;56575;48.942;8.404;2023-04-03T10:04:08;4.72;;;2.00;;
69386;SDS011;56575;48.942;8.404;2023-04-03T10:06:42;4.60;;;2.10;;
69386;SDS011;56575;48.942;8.404;2023-04-03T10:09:29;6.38;;;2.17;;
69386;SDS011;56575;48.942;8.404;2023-04-03T10:14:35;4.55;;;1.80;;
69386;SDS011;56575;48.942;8.404;2023-04-03T10:17:09;4.00;;;1.75;;
69386;SDS011;56575;48.942;8.404;2023-04-03T10:30:21;5.80;;;1.60;;
69386;SDS011;56575;48.942;8.404;2023-04-03T10:35:42;4.15;;;1.35;;
69386;SDS011;56575;48.942;8.404;2023-04-03T10:46:44;3.92;;;1.50;;
69386;SDS011;56575;48.942;8.404;2023-04-03T10:49:23;2.88;;;1.40;;
69386;SDS011;56575;48.942;8.404;2023-04-03T10:52:02;6.50;;;1.70;;
69386;SDS011;56575;48.942;8.404;2023-04-03T10:54:39;3.22;;;1.75;;
69386;SDS011;56575;48.942;8.404;2023-04-03T10:57:10;3.35;;;1.50;;
69386;SDS011;56575;48.942;8.404;2023-04-03T10:59:37;4.03;;;1.50;;
69386;SDS011;56575;48.942;8.404;2023-04-03T11:04:40;3.17;;;1.60;;
69386;SDS011;56575;48.942;8.404;2023-04-03T11:07:12;1.98;;;1.10;;
69386;SDS011;56575;48.942;8.404;2023-04-03T11:09:55;5.00;;;1.40;;
69386;SDS011;56575;48.942;8.404;2023-04-03T11:12:35;4.45;;;1.33;;
69386;SDS011;56575;48.942;8.404;2023-04-03T11:15:05;4.38;;;1.50;;
69386;SDS011;56575;48.942;8.404;2023-04-03T11:17:45;3.37;;;1.30;;
69386;SDS011;56575;48.942;8.404;2023-04-03T11:20:25;4.53;;;1.40;;
69386;SDS011;56575;48.942;8.404;2023-04-03T11:23:18;3.20;;;1.17;;
69386;SDS011;56575;48.942;8.404;2023-04-03T11:25:49;2.65;;;1.60;;
69386;SDS011;56575;48.942;8.404;2023-04-03T11:28:17;7.60;;;1.85;;
69386;SDS011;56575;48.942;8.404;2023-04-03T11:30:55;2.50;;;1.40;;
69386;SDS011;56575;48.942;8.404;2023-04-03T11:33:31;3.65;;;1.35;;
69386;SDS011;56575;48.942;8.404;2023-04-03T11:36:13;3.77;;;1.40;;
69386;SDS011;56575;48.942;8.404;2023-04-03T11:38:45;2.53;;;1.10;;
69386;SDS011;56575;48.942;8.404;2023-04-03T11:41:14;4.85;;;1.67;;
69386;SDS011;56575;48.942;8.404;2023-04-03T11:43:41;3.47;;;1.38;;
69386;SDS011;56575;48.942;8.404;2023-04-03T11:46:20;3.00;;;1.25;;
69386;SDS011;56575;48.942;8.404;2023-04-03T11:48:47;2.73;;;1.40;;
69386;SDS011;56575;48.942;8.404;2023-04-03T11:53:42;4.53;;;1.50;;
69386;SDS011;56575;48.942;8.404;2023-04-03T12:01:47;2.03;;;1.10;;
69386;SDS011;56575;48.942;8.404;2023-04-03T12:04:13;3.75;;;1.30;;
69386;SDS011;56575;48.942;8.404;2023-04-03T12:11:49;2.87;;;1.40;;
69386;SDS011;56575;48.942;8.404;2023-04-03T12:14:16;4.88;;;1.30;;
69386;SDS011;56575;48.942;8.404;2023-04-03T12:16:42;2.70;;;1.50;;
69386;SDS011;56575;48.942;8.404;2023-04-03T12:26:48;5.00;;;1.58;;
69386;SDS011;56575;48.942;8.404;2023-04-03T12:47:39;5.27;;;2.20;;
69386;SDS011;56575;48.942;8.404;2023-04-03T12:55:31;4.27;;;2.10;;
69386;SDS011;56575;48.942;8.404;2023-04-03T12:57:57;3.97;;;1.73;;
69386;SDS011;56575;48.942;8.404;2023-04-03T13:02:57;4.95;;;1.80;;
69386;SDS011;56575;48.942;8.404;2023-04-03T13:05:23;3.67;;;1.52;;
69386;SDS011;56575;48.942;8.404;2023-04-03T13:07:57;5.13;;;1.40;;
69386;SDS011;56575;48.942;8.404;2023-04-03T13:10:25;3.37;;;1.90;;
69386;SDS011;56575;48.942;8.404;2023-04-03T13:12:58;2.35;;;1.50;;
69386;SDS011;56575;48.942;8.404;2023-04-03T13:15:46;7.27;;;1.53;;
69386;SDS011;56575;48.942;8.404;2023-04-03T13:18:24;2.85;;;1.30;;
69386;SDS011;56575;48.942;8.404;2023-04-03T13:20:52;4.88;;;1.60;;
69386;SDS011;56575;48.942;8.404;2023-04-03T13:23:22;3.45;;;1.27;;
69386;SDS011;56575;48.942;8.404;2023-04-03T13:25:48;2.85;;;1.42;;
69386;SDS011;56575;48.942;8.404;2023-04-03T13:28:17;4.00;;;1.60;;
69386;SDS011;56575;48.942;8.404;2023-04-03T13:30:55;4.10;;;1.42;;
69386;SDS011;56575;48.942;8.404;2023-04-03T13:33:28;3.97;;;1.40;;
69386;SDS011;56575;48.942;8.404;2023-04-03T13:36:05;6.78;;;1.50;;
69386;SDS011;56575;48.942;8.404;2023-04-03T13:38:41;2.33;;;1.35;;
69386;SDS011;56575;48.942;8.404;2023-04-03T13:46:50;3.07;;;1.30;;
69386;SDS011;56575;48.942;8.404;2023-04-03T13:49:21;3.72;;;1.48;;
69386;SDS011;56575;48.942;8.404;2023-04-03T13:54:45;4.55;;;1.52;;
69386;SDS011;56575;48.942;8.404;2023-04-03T13:57:15;4.40;;;1.98;;
69386;SDS011;56575;48.942;8.404;2023-04-03T13:59:41;8.20;;;1.70;;
69386;SDS011;56575;48.942;8.404;2023-04-03T14:07:11;4.60;;;2.00;;
69386;SDS011;56575;48.942;8.404;2023-04-03T14:09:38;3.72;;;1.35;;
69386;SDS011;56575;48.942;8.404;2023-04-03T14:12:07;2.92;;;1.40;;
69386;SDS011;56575;48.942;8.404;2023-04-03T14:14:38;3.55;;;1.60;;
69386;SDS011;56575;48.942;8.404;2023-04-03T14:17:10;3.27;;;1.30;;
69386;SDS011;56575;48.942;8.404;2023-04-03T14:19:40;5.00;;;1.67;;
69386;SDS011;56575;48.942;8.404;2023-04-03T14:22:27;3.23;;;1.30;;
69386;SDS011;56575;48.942;8.404;2023-04-03T14:24:53;2.95;;;1.58;;
69386;SDS011;56575;48.942;8.404;2023-04-03T14:27:24;4.60;;;1.60;;
69386;SDS011;56575;48.942;8.404;2023-04-03T14:30:14;4.83;;;1.30;;
69386;SDS011;56575;48.942;8.404;2023-04-03T14:32:43;4.22;;;1.50;;
69386;SDS011;56575;48.942;8.404;2023-04-03T14:35:08;5.55;;;1.67;;
69386;SDS011;56575;48.942;8.404;2023-04-03T14:37:34;3.97;;;1.80;;
69386;SDS011;56575;48.942;8.404;2023-04-03T14:40:00;4.32;;;1.55;;
69386;SDS011;56575;48.942;8.404;2023-04-03T14:42:30;2.65;;;1.55;;
69386;SDS011;56575;48.942;8.404;2023-04-03T14:44:57;3.90;;;1.80;;
69386;SDS011;56575;48.942;8.404;2023-04-03T14:47:24;5.45;;;1.70;;
69386;SDS011;56575;48.942;8.404;2023-04-03T14:49:53;5.28;;;1.60;;
69386;SDS011;56575;48.942;8.404;2023-04-03T14:52:20;4.72;;;1.60;;
69386;SDS011;56575;48.942;8.404;2023-04-03T14:54:56;5.60;;;1.90;;
69386;SDS011;56575;48.942;8.404;2023-04-03T14:57:25;3.40;;;1.40;;
69386;SDS011;56575;48.942;8.404;2023-04-03T14:59:53;4.78;;;1.75;;
69386;SDS011;56575;48.942;8.404;2023-04-03T15:02:31;5.17;;;1.70;;
69386;SDS011;56575;48.942;8.404;2023-04-03T15:05:02;4.78;;;1.42;;
69386;SDS011;56575;48.942;8.404;2023-04-03T15:07:30;5.68;;;1.70;;
69386;SDS011;56575;48.942;8.404;2023-04-03T15:10:46;3.75;;;1.70;;
69386;SDS011;56575;48.942;8.404;2023-04-03T15:12:51;4.07;;;1.73;;
69386;SDS011;56575;48.942;8.404;2023-04-03T15:15:18;4.55;;;1.70;;
69386;SDS011;56575;48.942;8.404;2023-04-03T15:17:45;4.10;;;1.55;;
69386;SDS011;56575;48.942;8.404;2023-04-03T15:20:17;4.43;;;1.90;;
69386;SDS011;56575;48.942;8.404;2023-04-03T15:22:45;9.70;;;3.40;;
69386;SDS011;56575;48.942;8.404;2023-04-03T15:25:11;5.10;;;2.20;;
69386;SDS011;56575;48.942;8.404;2023-04-03T15:27:37;14.60;;;4.25;;
69386;SDS011;56575;48.942;8.404;2023-04-03T15:30:06;7.32;;;2.30;;
69386;SDS011;56575;48.942;8.404;2023-04-03T15:32:38;9.48;;;2.95;;
69386;SDS011;56575;48.942;8.404;2023-04-03T15:35:03;14.00;;;4.50;;
69386;SDS011;56575;48.942;8.404;2023-04-03T15:37:29;15.02;;;4.93;;
69386;SDS011;56575;48.942;8.404;2023-04-03T15:39:54;7.93;;;2.33;;
69386;SDS011;56575;48.942;8.404;2023-04-03T15:42:20;16.23;;;4.03;;
69386;SDS011;56575;48.942;8.404;2023-04-03T15:44:45;6.03;;;2.30;;
69386;SDS011;56575;48.942;8.404;2023-04-03T15:47:11;5.53;;;2.30;;
69386;SDS011;56575;48.942;8.404;2023-04-03T15:49:36;4.47;;;1.70;;
69386;SDS011;56575;48.942;8.404;2023-04-03T15:52:02;3.20;;;1.40;;
69386;SDS011;56575;48.942;8.404;2023-04-03T15:54:28;4.38;;;1.88;;
69386;SDS011;56575;48.942;8.404;2023-04-03T15:56:54;3.10;;;1.60;;
69386;SDS011;56575;48.942;8.404;2023-04-03T15:59:20;3.15;;;1.58;;
69386;SDS011;56575;48.942;8.404;2023-04-03T16:01:46;3.53;;;1.58;;
69386;SDS011;56575;48.942;8.404;2023-04-03T16:04:12;2.92;;;1.42;;
69386;SDS011;56575;48.942;8.404;2023-04-03T16:06:38;2.93;;;1.57;;
69386;SDS011;56575;48.942;8.404;2023-04-03T16:09:04;5.32;;;1.60;;
69386;SDS011;56575;48.942;8.404;2023-04-03T16:11:30;6.13;;;1.60;;
69386;SDS011;56575;48.942;8.404;2023-04-03T16:13:55;5.07;;;1.83;;
69386;SDS011;56575;48.942;8.404;2023-04-03T16:16:21;3.67;;;1.60;;
69386;SDS011;56575;48.942;8.404;2023-04-03T16:18:48;3.28;;;1.33;;
69386;SDS011;56575;48.942;8.404;2023-04-03T16:21:14;3.97;;;1.80;;
69386;SDS011;56575;48.942;8.404;2023-04-03T16:23:41;4.50;;;1.85;;
69386;SDS011;56575;48.942;8.404;2023-04-03T16:26:07;3.30;;;1.60;;
69386;SDS011;56575;48.942;8.404;2023-04-03T16:28:33;3.70;;;1.77;;
69386;SDS011;56575;48.942;8.404;2023-04-03T16:30:59;2.70;;;1.30;;
69386;SDS011;56575;48.942;8.404;2023-04-03T16:33:25;3.70;;;1.50;;
69386;SDS011;56575;48.942;8.404;2023-04-03T16:35:51;4.93;;;1.40;;
69386;SDS011;56575;48.942;8.404;2023-04-03T16:38:17;3.30;;;1.90;;
69386;SDS011;56575;48.942;8.404;2023-04-03T16:40:43;3.05;;;1.50;;
69386;SDS011;56575;48.942;8.404;2023-04-03T16:43:10;3.40;;;1.77;;
69386;SDS011;56575;48.942;8.404;2023-04-03T16:45:35;3.50;;;1.60;;
69386;SDS011;56575;48.942;8.404;2023-04-03T16:48:04;3.37;;;1.63;;
69386;SDS011;56575;48.942;8.404;2023-04-03T16:50:30;3.17;;;1.30;;
69386;SDS011;56575;48.942;8.404;2023-04-03T16:52:55;4.23;;;1.40;;